Time;durP1;ratioP1;P1;durP2;ratioP2;P2;SDS_P1;SDS_P2;PMS_P1;PMS_P2;Temp;Humidity;BMP_temperature;BMP_pressure;BME280_temperature;BME280_humidity;BME280_pressure;Samples;Min_cycle;Max_cycle;Signal;HPM_P1;HPM_P2
2023/05/20 00:02:08;;;;;;;4.00;2.70;;;;;;;15.46;59.10;100849.22;5060133;28;20206;-73
2023/05/20 00:04:34;;;;;;;4.90;2.53;;;;;;;15.42;59.59;100836.75;5056554;28;20286;-72
2023/05/20 00:07:01;;;;;;;5.13;2.63;;;;;;;15.48;59.58;100835.88;5062473;28;20230;-70
2023/05/20 00:09:28;;;;;;;4.13;2.40;;;;;;;15.36;60.25;100836.75;5060408;28;20221;-70
2023/05/20 00:11:54;;;;;;;3.73;2.60;;;;;;;15.34;60.36;100842.09;5060133;28;20553;-75
2023/05/20 00:14:21;;;;;;;3.90;2.53;;;;;;;15.36;60.57;100834.97;5061951;28;20732;-71
2023/05/20 00:16:47;;;;;;;2.90;2.37;;;;;;;15.34;60.87;100834.09;5062935;28;20681;-74
2023/05/20 00:19:14;;;;;;;3.80;2.40;;;;;;;15.38;61.11;100828.75;5058973;28;20724;-70
2023/05/20 00:21:40;;;;;;;6.43;2.57;;;;;;;15.38;61.06;100826.09;5064560;28;20297;-70
2023/05/20 00:24:07;;;;;;;4.47;2.63;;;;;;;15.29;61.39;100833.19;5062586;28;20298;-72
2023/05/20 00:26:33;;;;;;;3.90;2.70;;;;;;;15.26;61.53;100832.31;5059311;28;20202;-71
2023/05/20 00:29:00;;;;;;;3.17;2.30;;;;;;;15.14;62.60;100822.47;5057923;28;20242;-73
2023/05/20 00:31:26;;;;;;;3.80;2.87;;;;;;;15.13;62.58;100839.38;5061468;28;20729;-72
2023/05/20 00:33:52;;;;;;;3.60;2.97;;;;;;;15.23;62.57;100837.63;5061126;28;20198;-70
2023/05/20 00:36:19;;;;;;;3.77;2.47;;;;;;;15.17;62.98;100838.50;5059151;28;20742;-71
2023/05/20 00:38:45;;;;;;;3.13;2.50;;;;;;;15.11;63.43;100830.47;5059720;28;20230;-70
2023/05/20 00:41:12;;;;;;;4.17;2.70;;;;;;;15.04;63.47;100831.34;5059305;28;20306;-70
2023/05/20 00:43:38;;;;;;;4.63;2.60;;;;;;;15.08;63.91;100832.25;5060434;28;20197;-70
2023/05/20 00:46:05;;;;;;;4.97;2.70;;;;;;;15.14;63.72;100827.81;5055141;28;20209;-70
2023/05/20 00:48:41;;;;;;;4.33;2.70;;;;;;;15.09;63.70;100826.91;5058326;28;20597;-70
2023/05/20 00:51:10;;;;;;;5.03;3.00;;;;;;;15.12;64.23;100818.03;5057519;28;20197;-71
2023/05/20 00:53:37;;;;;;;4.00;2.73;;;;;;;14.97;64.22;100819.78;5059736;28;20571;-70
2023/05/20 00:56:04;;;;;;;4.33;2.90;;;;;;;14.91;65.19;100819.78;5059223;28;20201;-70
2023/05/20 00:58:31;;;;;;;4.50;3.03;;;;;;;14.85;64.79;100821.53;5060701;28;20223;-70
2023/05/20 01:00:57;;;;;;;6.00;2.40;;;;;;;14.65;64.56;100816.13;5062552;28;20222;-73
2023/05/20 01:03:24;;;;;;;3.63;2.70;;;;;;;14.60;67.24;100812.56;5054219;28;20320;-70
2023/05/20 01:05:50;;;;;;;5.50;2.87;;;;;;;14.46;66.46;100819.63;5061077;28;20202;-70
2023/05/20 01:08:17;;;;;;;3.23;2.50;;;;;;;14.34;67.77;100821.28;5055763;28;20301;-72
2023/05/20 01:10:46;;;;;;;3.37;2.53;;;;;;;14.34;68.04;100818.63;5051778;28;20618;-71
2023/05/20 01:13:17;;;;;;;4.27;2.37;;;;;;;14.17;68.00;100808.78;5059563;28;20221;-71
2023/05/20 01:15:46;;;;;;;3.47;2.73;;;;;;;14.04;68.34;100824.69;5057085;28;20195;-70
2023/05/20 01:18:17;;;;;;;4.57;2.50;;;;;;;13.88;70.02;100821.91;5058764;28;20245;-70
2023/05/20 01:20:47;;;;;;;4.13;2.53;;;;;;;13.87;69.89;100830.78;5056690;28;20222;-70
2023/05/20 01:23:14;;;;;;;5.67;2.97;;;;;;;13.76;69.47;100815.63;5053840;28;20226;-70
2023/05/20 01:25:41;;;;;;;3.63;2.93;;;;;;;13.80;69.65;100822.75;5056324;28;20283;-73
2023/05/20 01:28:08;;;;;;;4.77;2.77;;;;;;;13.87;69.73;100810.38;5055856;28;20297;-71
2023/05/20 01:30:39;;;;;;;3.27;2.27;;;;;;;13.84;69.89;100814.78;5056776;28;20218;-70
2023/05/20 01:33:10;;;;;;;3.13;2.43;;;;;;;13.66;70.32;100815.53;5059876;28;20637;-70
2023/05/20 01:35:40;;;;;;;3.87;2.60;;;;;;;13.63;71.55;100811.09;5055628;28;20195;-71
2023/05/20 01:38:07;;;;;;;3.80;2.73;;;;;;;13.56;71.95;100814.56;5052235;28;20280;-76
2023/05/20 01:40:33;;;;;;;22.80;2.70;;;;;;;13.57;71.96;100818.13;5055696;28;20218;-76
2023/05/20 01:43:02;;;;;;;3.47;2.37;;;;;;;13.52;72.13;100809.22;5057367;28;20673;-71
2023/05/20 01:45:28;;;;;;;3.53;2.40;;;;;;;13.54;72.40;100818.09;5053575;28;20212;-71
2023/05/20 01:47:54;;;;;;;5.07;2.73;;;;;;;13.51;72.64;100815.41;5060246;28;20229;-71
2023/05/20 01:50:21;;;;;;;3.17;2.60;;;;;;;13.42;73.51;100818.88;5052237;28;20284;-70
2023/05/20 01:52:47;;;;;;;4.17;2.83;;;;;;;13.34;73.11;100815.28;5055877;28;20201;-71
2023/05/20 01:55:14;;;;;;;3.40;2.57;;;;;;;13.27;73.79;100806.34;5054125;28;20252;-73
2023/05/20 01:57:40;;;;;;;3.13;2.57;;;;;;;13.07;74.36;100807.88;5056521;28;20555;-72
2023/05/20 02:00:08;;;;;;;3.63;2.40;;;;;;;12.92;75.55;100802.41;5051462;28;20965;-75
2023/05/20 02:02:35;;;;;;;4.00;2.70;;;;;;;12.91;74.74;100788.25;5057997;28;20236;-70
2023/05/20 02:05:01;;;;;;;2.90;2.50;;;;;;;12.74;76.34;100793.34;5054775;28;20207;-70
2023/05/20 02:07:28;;;;;;;3.07;2.40;;;;;;;12.71;77.18;100797.75;5056361;28;20240;-70
2023/05/20 02:09:54;;;;;;;5.33;3.10;;;;;;;12.63;78.09;100789.69;5055657;28;20694;-73
2023/05/20 02:12:20;;;;;;;4.87;2.60;;;;;;;12.47;78.26;100783.31;5063015;28;20661;-71
2023/05/20 02:14:49;;;;;;;3.93;2.60;;;;;;;12.30;80.13;100787.50;5058595;28;20212;-71
2023/05/20 02:17:16;;;;;;;3.47;2.67;;;;;;;12.24;81.77;100784.78;5060296;28;20230;-73
2023/05/20 02:19:44;;;;;;;3.17;2.70;;;;;;;12.15;81.73;100795.28;5068017;28;20216;-73
2023/05/20 02:22:11;;;;;;;3.47;2.73;;;;;;;11.93;82.39;100786.13;5065406;28;20221;-72
2023/05/20 02:24:37;;;;;;;3.97;2.93;;;;;;;11.82;83.67;100788.63;5058664;28;20196;-71
2023/05/20 02:27:05;;;;;;;3.10;2.73;;;;;;;11.91;83.89;100795.81;5066525;28;20229;-72
2023/05/20 02:29:31;;;;;;;3.43;2.80;;;;;;;11.96;83.93;100791.47;5050601;28;20504;-71
2023/05/20 02:31:58;;;;;;;5.00;3.13;;;;;;;12.14;83.39;100789.09;5061995;28;20201;-72
2023/05/20 02:34:28;;;;;;;3.37;2.70;;;;;;;12.29;82.59;100788.38;5059691;28;20329;-73
2023/05/20 02:36:55;;;;;;;3.87;3.20;;;;;;;12.40;82.57;100792.06;5060672;28;20242;-71
2023/05/20 02:39:22;;;;;;;4.10;3.10;;;;;;;12.35;82.44;100793.78;5066240;28;20245;-69
2023/05/20 02:41:48;;;;;;;6.10;2.90;;;;;;;12.54;82.14;100786.94;5065007;28;20307;-70
2023/05/20 02:44:15;;;;;;;6.47;3.07;;;;;;;12.65;81.42;100789.72;5065222;28;20194;-70
2023/05/20 02:46:42;;;;;;;3.87;2.97;;;;;;;12.72;81.08;100789.78;5058629;28;20197;-71
2023/05/20 02:49:08;;;;;;;2.93;2.60;;;;;;;12.65;81.07;100782.63;5057300;28;20232;-70
2023/05/20 02:51:35;;;;;;;4.93;3.40;;;;;;;12.70;81.14;100788.00;5067174;28;20207;-70
2023/05/20 02:54:02;;;;;;;4.93;3.30;;;;;;;12.73;81.26;100783.59;5061164;28;20235;-71
2023/05/20 02:56:29;;;;;;;3.87;3.10;;;;;;;12.83;80.07;100784.63;5062132;28;20565;-69
2023/05/20 02:58:55;;;;;;;4.27;3.00;;;;;;;12.89;79.56;100782.00;5063610;28;20216;-71
2023/05/20 03:01:22;;;;;;;4.43;3.10;;;;;;;13.04;79.38;100789.25;5062888;28;20405;-71
2023/05/20 03:03:48;;;;;;;6.57;3.40;;;;;;;13.11;78.37;100783.09;5059592;28;20246;-70
2023/05/20 03:06:15;;;;;;;4.83;3.30;;;;;;;13.12;77.89;100774.25;5065589;28;20190;-71
2023/05/20 03:08:41;;;;;;;3.73;3.03;;;;;;;13.21;77.74;100778.78;5056716;28;20217;-71
2023/05/20 03:11:08;;;;;;;5.23;2.77;;;;;;;13.28;77.65;100775.31;5058340;28;20949;-70
2023/05/20 03:13:34;;;;;;;5.90;2.97;;;;;;;13.29;77.49;100777.09;5056439;28;20282;-72
2023/05/20 03:16:01;;;;;;;4.50;3.30;;;;;;;13.32;77.38;100774.47;5063068;28;20198;-75
2023/05/20 03:18:27;;;;;;;5.60;3.37;;;;;;;13.30;76.87;100777.13;5059574;28;20258;-70
2023/05/20 03:20:54;;;;;;;4.50;3.07;;;;;;;13.20;78.01;100766.34;5059014;28;20768;-70
2023/05/20 03:23:20;;;;;;;4.17;3.03;;;;;;;13.27;78.38;100771.78;5059393;28;20565;-70
2023/05/20 03:25:47;;;;;;;4.00;2.90;;;;;;;13.29;78.01;100771.78;5057019;28;20202;-73
2023/05/20 03:28:13;;;;;;;4.10;3.03;;;;;;;13.28;78.07;100773.56;5062344;28;20305;-73
2023/05/20 03:30:39;;;;;;;4.10;3.10;;;;;;;13.29;78.07;100762.03;5043933;28;20752;-71
2023/05/20 03:33:06;;;;;;;4.70;3.13;;;;;;;13.38;77.63;100774.50;5065109;28;20607;-70
2023/05/20 03:35:32;;;;;;;3.90;3.13;;;;;;;13.41;77.53;100763.91;5064700;28;20574;-70
2023/05/20 03:38:00;;;;;;;4.70;3.30;;;;;;;13.41;77.42;100762.13;5059282;28;20239;-70
2023/05/20 03:40:27;;;;;;;5.27;3.30;;;;;;;13.41;76.99;100750.59;5064952;28;20195;-71
2023/05/20 03:42:53;;;;;;;6.07;3.50;;;;;;;13.48;77.54;100755.06;5060080;28;20225;-73
2023/05/20 03:45:19;;;;;;;5.63;3.33;;;;;;;13.52;76.96;100753.31;5053223;28;20203;-70
2023/05/20 03:47:46;;;;;;;3.93;3.27;;;;;;;13.53;76.91;100768.41;5063078;28;20220;-70
2023/05/20 03:50:12;;;;;;;4.73;3.10;;;;;;;13.53;76.91;100752.44;5044492;28;20201;-71
2023/05/20 03:52:39;;;;;;;5.53;3.03;;;;;;;13.55;77.04;100761.31;5059766;28;20232;-73
2023/05/20 03:55:06;;;;;;;5.30;3.07;;;;;;;13.51;77.26;100763.06;5059883;28;20203;-71
2023/05/20 03:57:33;;;;;;;4.43;3.70;;;;;;;13.55;77.09;100767.53;5056402;28;20283;-73
2023/05/20 04:00:01;;;;;;;5.90;3.80;;;;;;;13.55;77.52;100767.53;5061473;28;20212;-71
2023/05/20 04:02:27;;;;;;;4.27;3.53;;;;;;;13.61;77.11;100756.03;5062218;28;20228;-74
2023/05/20 04:04:56;;;;;;;5.47;3.40;;;;;;;13.67;76.75;100758.78;5056695;28;20198;-73
2023/05/20 04:07:22;;;;;;;4.63;3.37;;;;;;;13.62;77.02;100760.53;5059966;28;20206;-69
2023/05/20 04:09:49;;;;;;;4.47;3.43;;;;;;;13.62;76.86;100765.84;5067235;28;20217;-70
2023/05/20 04:12:18;;;;;;;4.97;3.77;;;;;;;13.57;77.46;100764.88;5066089;28;20648;-69
2023/05/20 04:14:44;;;;;;;4.53;3.50;;;;;;;13.58;77.46;100762.25;5062146;28;20255;-73
2023/05/20 04:17:10;;;;;;;6.00;3.47;;;;;;;13.62;77.81;100763.19;5053949;28;20203;-70
2023/05/20 04:19:37;;;;;;;6.53;3.23;;;;;;;13.61;77.46;100769.34;5059036;28;20228;-71
2023/05/20 04:22:03;;;;;;;6.77;3.80;;;;;;;13.67;77.47;100764.09;5063483;28;20780;-70
2023/05/20 04:24:30;;;;;;;4.03;3.43;;;;;;;13.65;77.19;100764.09;5063812;28;20191;-69
2023/05/20 04:26:56;;;;;;;5.10;3.80;;;;;;;13.70;76.94;100762.34;5060449;28;20234;-74
2023/05/20 04:29:23;;;;;;;5.20;3.23;;;;;;;13.71;77.09;100769.44;5044768;28;20720;-74
2023/05/20 04:31:49;;;;;;;4.50;3.67;;;;;;;13.73;77.55;100778.34;5055370;28;20198;-73
2023/05/20 04:34:19;;;;;;;5.53;3.80;;;;;;;13.72;77.13;100768.56;5064847;28;20590;-70
2023/05/20 04:36:45;;;;;;;4.93;3.57;;;;;;;13.74;77.10;100772.13;5065823;28;20199;-73
2023/05/20 04:39:12;;;;;;;4.20;3.70;;;;;;;13.80;77.13;100773.94;5049184;28;20250;-70
2023/05/20 04:41:41;;;;;;;4.83;3.80;;;;;;;13.81;77.21;100775.72;5050715;28;20218;-71
2023/05/20 04:44:08;;;;;;;5.10;3.80;;;;;;;13.84;77.70;100775.72;5069353;28;20538;-73
2023/05/20 04:46:34;;;;;;;4.80;3.47;;;;;;;13.84;77.53;100770.41;5066042;28;20689;-70
2023/05/20 04:49:03;;;;;;;5.80;3.53;;;;;;;13.91;77.44;100764.22;5079877;23;20272;-74
2023/05/20 04:51:30;;;;;;;5.07;3.77;;;;;;;13.94;76.79;100758.91;5045502;28;20195;-72
2023/05/20 04:53:57;;;;;;;4.40;3.70;;;;;;;13.98;77.11;100755.38;5043725;28;20617;-73
2023/05/20 04:56:24;;;;;;;4.00;3.53;;;;;;;14.05;76.68;100753.69;5045892;28;20210;-69
2023/05/20 04:58:51;;;;;;;5.00;3.70;;;;;;;14.13;76.57;100764.38;5040847;28;20272;-70
2023/05/20 05:01:18;;;;;;;5.37;3.83;;;;;;;14.14;76.18;100756.38;5025278;28;20223;-72
2023/05/20 05:03:44;;;;;;;6.40;4.00;;;;;;;14.23;75.85;100755.53;5025212;28;20629;-71
2023/05/20 05:06:11;;;;;;;6.73;4.00;;;;;;;14.27;75.93;100763.53;5027433;28;20210;-71
2023/05/20 05:08:37;;;;;;;6.47;4.00;;;;;;;14.32;75.65;100756.44;5027145;28;20223;-69
2023/05/20 05:11:05;;;;;;;5.00;3.50;;;;;;;14.36;75.30;100752.91;5022561;28;20557;-71
2023/05/20 05:13:32;;;;;;;6.13;3.63;;;;;;;14.37;75.38;100754.69;5029306;28;20299;-72
2023/05/20 05:15:59;;;;;;;6.00;3.90;;;;;;;14.47;75.02;100744.13;5026776;28;20290;-71
2023/05/20 05:18:26;;;;;;;4.60;3.83;;;;;;;14.62;74.37;100742.38;5025063;28;20223;-72
2023/05/20 05:21:00;;;;;;;5.10;3.80;;;;;;;14.63;73.98;100745.94;5026663;28;20199;-69
2023/05/20 05:23:27;;;;;;;5.03;3.80;;;;;;;14.70;74.23;100745.94;5025365;28;20214;-70
2023/05/20 05:25:53;;;;;;;4.77;3.70;;;;;;;14.72;74.01;100749.50;5022275;28;20200;-69
2023/05/20 05:28:19;;;;;;;5.20;3.90;;;;;;;14.66;74.03;100735.28;5024643;28;20230;-69
2023/05/20 05:30:46;;;;;;;4.47;3.63;;;;;;;14.69;74.64;100746.84;5028803;28;20206;-71
2023/05/20 05:33:16;;;;;;;4.83;3.60;;;;;;;14.73;74.28;100745.94;5032089;28;20196;-71
2023/05/20 05:35:43;;;;;;;7.10;3.87;;;;;;;14.74;74.13;100742.38;5030550;28;20207;-71
2023/05/20 05:38:09;;;;;;;4.57;3.77;;;;;;;14.70;74.55;100737.06;5026348;28;20750;-70
2023/05/20 05:40:36;;;;;;;6.53;4.37;;;;;;;14.72;74.60;100737.94;5027905;28;20214;-70
2023/05/20 05:43:04;;;;;;;5.93;4.07;;;;;;;14.76;74.41;100739.72;5034556;28;20219;-69
2023/05/20 05:45:30;;;;;;;6.00;4.00;;;;;;;14.86;74.39;100736.22;5027171;28;20724;-69
2023/05/20 05:47:57;;;;;;;4.60;4.00;;;;;;;14.98;73.69;100735.34;5029522;28;20282;-70
2023/05/20 05:50:24;;;;;;;6.40;4.20;;;;;;;15.13;72.99;100737.09;5030067;28;20556;-71
2023/05/20 05:52:50;;;;;;;5.07;3.83;;;;;;;15.26;72.36;100730.91;5026072;28;20206;-72
2023/05/20 05:55:17;;;;;;;5.47;3.90;;;;;;;15.46;71.29;100728.22;5033684;28;20676;-70
2023/05/20 05:57:43;;;;;;;6.57;4.10;;;;;;;15.59;70.85;100719.31;5026847;28;20766;-71
2023/05/20 06:00:10;;;;;;;4.77;3.70;;;;;;;15.60;70.64;100727.31;5032038;28;20218;-72
2023/05/20 06:02:37;;;;;;;7.87;4.33;;;;;;;15.71;70.35;100723.75;5023078;28;20212;-73
2023/05/20 06:05:04;;;;;;;4.93;4.00;;;;;;;15.78;70.04;100722.84;5029414;28;20290;-71
2023/05/20 06:07:30;;;;;;;5.10;3.83;;;;;;;15.90;69.90;100728.16;5026005;28;20196;-72
2023/05/20 06:09:57;;;;;;;5.07;3.70;;;;;;;15.95;69.85;100726.34;5029691;28;20230;-69
2023/05/20 06:12:23;;;;;;;10.03;4.00;;;;;;;16.01;69.39;100731.69;5029599;28;20198;-72
2023/05/20 06:14:50;;;;;;;6.20;3.73;;;;;;;16.10;69.28;100726.31;5035694;28;20290;-69
2023/05/20 06:17:16;;;;;;;6.10;4.20;;;;;;;16.15;68.93;100727.19;5028030;28;20754;-68
2023/05/20 06:19:43;;;;;;;5.63;3.73;;;;;;;16.42;68.26;100738.66;5022132;28;20311;-68
2023/05/20 06:22:09;;;;;;;5.27;3.90;;;;;;;16.63;67.21;100727.84;5031146;28;20256;-69
2023/05/20 06:24:35;;;;;;;6.03;4.60;;;;;;;16.89;66.03;100731.28;5026082;28;20574;-69
2023/05/20 06:27:02;;;;;;;5.17;3.57;;;;;;;16.97;65.87;100723.19;5031507;28;20390;-68
2023/05/20 06:29:28;;;;;;;6.73;3.97;;;;;;;17.15;64.77;100723.03;5018695;28;20218;-69
2023/05/20 06:31:55;;;;;;;6.83;4.53;;;;;;;17.36;64.05;100731.81;5034403;28;20214;-70
2023/05/20 06:34:21;;;;;;;7.10;4.17;;;;;;;17.70;63.63;100727.94;5028729;28;20220;-68
2023/05/20 06:36:48;;;;;;;4.97;3.80;;;;;;;18.11;61.51;100726.59;5024689;28;20243;-69
2023/05/20 06:39:14;;;;;;;6.87;4.30;;;;;;;18.53;60.22;100732.31;5024508;28;20215;-70
2023/05/20 06:41:41;;;;;;;6.17;3.80;;;;;;;18.82;59.91;100729.25;5028121;28;20203;-69
2023/05/20 06:44:07;;;;;;;4.67;4.10;;;;;;;18.84;59.02;100722.06;5029168;28;20321;-69
2023/05/20 06:46:34;;;;;;;7.47;4.30;;;;;;;18.69;59.71;100715.13;5027488;28;20195;-69
2023/05/20 06:49:00;;;;;;;7.17;4.40;;;;;;;18.42;60.30;100709.22;5028429;28;20227;-69
2023/05/20 06:51:27;;;;;;;5.53;4.27;;;;;;;18.67;60.22;100715.13;5025255;28;20291;-69
2023/05/20 06:53:53;;;;;;;7.07;4.90;;;;;;;18.87;58.92;100717.53;5028754;28;20195;-69
2023/05/20 06:56:20;;;;;;;5.53;4.40;;;;;;;19.25;58.11;100707.97;5025809;28;20205;-69
2023/05/20 06:58:47;;;;;;;6.43;4.80;;;;;;;20.07;55.53;100706.47;5020463;28;20607;-69
2023/05/20 07:01:13;;;;;;;9.23;5.00;;;;;;;22.14;49.08;100695.13;5023396;28;20195;-69
2023/05/20 07:03:43;;;;;;;5.93;4.47;;;;;;;23.26;45.09;100700.63;5017743;28;20595;-68
2023/05/20 07:06:09;;;;;;;5.83;4.47;;;;;;;23.43;44.43;100706.34;5027397;28;20235;-71
2023/05/20 07:08:36;;;;;;;7.43;5.00;;;;;;;23.75;43.27;100713.34;5027466;28;20220;-69
2023/05/20 07:11:02;;;;;;;7.20;4.87;;;;;;;23.14;44.55;100712.72;5025542;28;20208;-69
2023/05/20 07:13:30;;;;;;;6.07;4.50;;;;;;;24.32;41.31;100704.06;5020405;28;20203;-68
2023/05/20 07:15:56;;;;;;;5.97;5.00;;;;;;;23.26;43.79;100708.75;5005286;28;20199;-70
2023/05/20 07:18:22;;;;;;;5.63;4.43;;;;;;;23.51;43.89;100693.44;5020511;28;20707;-69
2023/05/20 07:20:49;;;;;;;6.17;4.60;;;;;;;23.61;43.26;100705.72;5027837;28;20703;-69
2023/05/20 07:23:15;;;;;;;8.03;4.70;;;;;;;22.75;45.21;100706.75;5026375;28;20216;-70
2023/05/20 07:25:42;;;;;;;5.97;4.50;;;;;;;22.09;47.20;100708.75;5024643;28;20196;-69
2023/05/20 07:28:08;;;;;;;6.13;4.80;;;;;;;21.20;49.88;100704.78;5025060;28;20587;-71
2023/05/20 07:30:34;;;;;;;7.47;5.13;;;;;;;21.73;49.24;100705.25;5021637;28;20287;-70
2023/05/20 07:33:01;;;;;;;7.17;5.00;;;;;;;22.10;46.87;100705.13;5028566;28;20183;-70
2023/05/20 07:35:27;;;;;;;7.50;5.07;;;;;;;21.02;50.37;100699.88;5024890;28;20199;-69
2023/05/20 07:37:54;;;;;;;8.10;5.70;;;;;;;20.76;51.32;100702.28;5027872;28;20502;-69
2023/05/20 07:40:21;;;;;;;6.60;4.70;;;;;;;20.90;50.88;100686.72;5024070;28;20316;-69
2023/05/20 07:42:47;;;;;;;7.07;5.43;;;;;;;20.38;52.47;100695.94;5027476;28;20223;-69
2023/05/20 07:45:13;;;;;;;7.07;5.37;;;;;;;20.23;52.75;100697.16;5026843;28;20201;-69
2023/05/20 07:47:40;;;;;;;7.40;5.20;;;;;;;19.22;56.10;100691.94;5019683;28;20215;-70
2023/05/20 07:50:08;;;;;;;6.13;5.33;;;;;;;18.79;58.38;100704.22;5028476;28;20253;-69
2023/05/20 07:52:34;;;;;;;6.30;5.50;;;;;;;18.80;58.40;100678.25;5024911;28;20192;-71
2023/05/20 07:55:13;;;;;;;7.53;6.07;;;;;;;18.80;57.95;100680.94;5024153;28;20234;-69
2023/05/20 07:57:39;;;;;;;7.67;5.50;;;;;;;18.94;58.22;100676.25;5015301;28;20200;-70
2023/05/20 08:00:08;;;;;;;7.57;5.43;;;;;;;18.92;57.87;100680.78;5006898;28;20212;-70
2023/05/20 08:02:35;;;;;;;6.73;5.20;;;;;;;19.14;57.92;100670.56;5023399;28;20219;-71
2023/05/20 08:05:01;;;;;;;7.07;5.90;;;;;;;19.16;57.30;100670.53;5021646;28;20196;-70
2023/05/20 08:07:28;;;;;;;7.67;5.63;;;;;;;19.25;57.27;100676.66;5019977;28;20668;-70
2023/05/20 08:09:54;;;;;;;7.67;5.70;;;;;;;19.49;56.46;100683.34;5026929;28;20242;-70
2023/05/20 08:12:21;;;;;;;8.13;6.00;;;;;;;19.44;56.55;100682.56;5028112;28;20675;-69
2023/05/20 08:14:47;;;;;;;6.87;5.70;;;;;;;19.08;57.47;100678.72;5026521;28;20199;-70
2023/05/20 08:17:14;;;;;;;6.67;5.63;;;;;;;19.08;57.59;100676.03;5027075;28;20203;-70
2023/05/20 08:19:40;;;;;;;8.30;6.30;;;;;;;18.94;58.30;100678.94;5029778;28;20609;-70
2023/05/20 08:22:07;;;;;;;7.30;5.80;;;;;;;19.37;57.04;100671.03;5027567;28;20207;-69
2023/05/20 08:24:33;;;;;;;9.60;6.13;;;;;;;19.65;56.11;100676.84;5029809;28;20581;-71
2023/05/20 08:27:00;;;;;;;7.77;6.17;;;;;;;19.69;55.88;100675.84;5029603;28;20204;-71
2023/05/20 08:29:26;;;;;;;8.10;5.57;;;;;;;19.51;56.22;100668.09;5028268;28;20370;-70
2023/05/20 08:31:53;;;;;;;7.30;5.57;;;;;;;20.17;55.21;100672.19;5026776;28;20204;-69
2023/05/20 08:34:19;;;;;;;8.70;5.50;;;;;;;20.80;53.37;100677.94;5028932;28;20191;-70
2023/05/20 08:36:46;;;;;;;7.23;5.93;;;;;;;20.83;51.57;100672.50;5029110;28;20200;-70
2023/05/20 08:39:12;;;;;;;10.90;6.50;;;;;;;21.05;51.89;100671.97;5011814;28;20219;-70
2023/05/20 08:41:38;;;;;;;7.40;6.03;;;;;;;20.82;52.57;100673.44;5024145;28;20191;-69
2023/05/20 08:44:08;;;;;;;7.87;5.73;;;;;;;20.98;52.07;100670.34;5028937;28;20233;-69
2023/05/20 08:46:36;;;;;;;7.57;5.93;;;;;;;20.92;52.02;100674.09;5028502;28;20206;-69
2023/05/20 08:49:03;;;;;;;7.43;5.80;;;;;;;21.07;51.50;100671.00;5025507;28;20305;-69
2023/05/20 08:51:32;;;;;;;10.60;6.03;;;;;;;20.97;51.64;100672.16;5024129;28;21098;-70
2023/05/20 08:53:59;;;;;;;9.90;6.60;;;;;;;20.17;54.04;100667.69;5027254;28;20195;-69
2023/05/20 08:56:26;;;;;;;6.77;5.83;;;;;;;20.20;54.87;100662.25;5028533;28;20253;-69
2023/05/20 08:58:56;;;;;;;8.93;6.40;;;;;;;20.49;54.90;100664.34;5029156;28;20298;-70
2023/05/20 09:01:24;;;;;;;7.10;5.90;;;;;;;20.27;54.47;100677.34;5023027;28;20198;-69
2023/05/20 09:03:51;;;;;;;7.47;6.20;;;;;;;19.72;55.96;100672.22;5028849;28;20216;-70
2023/05/20 09:06:21;;;;;;;9.17;6.30;;;;;;;19.86;56.07;100666.56;5026066;28;20195;-70
2023/05/20 09:08:51;;;;;;;11.20;6.70;;;;;;;20.11;55.39;100666.94;5023213;28;20223;-71
2023/05/20 09:11:20;;;;;;;8.20;6.57;;;;;;;20.40;54.51;100664.53;5025268;28;20204;-69
2023/05/20 09:13:46;;;;;;;8.03;6.40;;;;;;;20.48;54.32;100684.09;5025115;28;20192;-71
2023/05/20 09:16:13;;;;;;;12.27;6.80;;;;;;;20.22;55.20;100671.19;5029070;28;20274;-69
2023/05/20 09:18:40;;;;;;;8.83;6.70;;;;;;;19.93;56.55;100666.41;5021845;28;20242;-70
2023/05/20 09:21:08;;;;;;;9.43;7.17;;;;;;;20.24;55.54;100666.66;5028302;28;20276;-69
2023/05/20 09:23:38;;;;;;;7.83;6.03;;;;;;;20.62;54.01;100668.50;5025596;28;20212;-71
2023/05/20 09:26:04;;;;;;;8.18;6.25;;;;;;;20.79;53.53;100662.72;5028366;28;20230;-70
2023/05/20 09:28:31;;;;;;;8.23;6.20;;;;;;;20.58;53.52;100663.25;5012116;28;20220;-69
2023/05/20 09:31:00;;;;;;;9.80;7.03;;;;;;;20.60;54.17;100669.47;5029761;28;20206;-69
2023/05/20 09:33:30;;;;;;;10.60;7.20;;;;;;;20.97;52.72;100658.72;5021899;28;20192;-68
2023/05/20 09:36:06;;;;;;;8.65;6.82;;;;;;;21.37;52.14;100664.00;5028749;28;20289;-69
2023/05/20 09:38:37;;;;;;;8.07;6.63;;;;;;;21.57;51.75;100660.75;5027314;28;20657;-69
2023/05/20 09:41:10;;;;;;;9.63;6.57;;;;;;;22.18;50.39;100656.34;5016754;28;20202;-70
2023/05/20 09:43:39;;;;;;;10.35;6.70;;;;;;;22.63;47.84;100653.13;5020390;28;20244;-70
2023/05/20 09:46:07;;;;;;;9.25;6.95;;;;;;;22.68;47.22;100643.06;5023967;28;20674;-70
2023/05/20 09:48:37;;;;;;;8.25;6.70;;;;;;;22.64;47.35;100645.00;5024369;28;20329;-69
2023/05/20 09:51:04;;;;;;;12.73;7.15;;;;;;;22.24;48.12;100650.75;5030198;28;20190;-69
2023/05/20 09:53:31;;;;;;;8.63;6.82;;;;;;;22.18;49.18;100656.34;5030512;28;20603;-70
2023/05/20 09:55:58;;;;;;;8.77;6.90;;;;;;;21.63;49.78;100657.03;5021705;28;20207;-71
2023/05/20 09:58:24;;;;;;;9.07;6.30;;;;;;;22.03;49.43;100645.97;5021844;28;20219;-69
2023/05/20 10:00:52;;;;;;;10.40;7.60;;;;;;;21.51;50.05;100642.03;5024386;28;20257;-72
2023/05/20 10:03:22;;;;;;;10.30;6.95;;;;;;;22.02;49.89;100631.59;5021227;28;20216;-70
2023/05/20 10:06:10;;;;;;;8.20;6.40;;;;;;;22.07;49.63;100636.91;5015584;28;20206;-68
2023/05/20 10:09:01;;;;;;;8.10;6.57;;;;;;;22.50;49.34;100633.75;5025477;28;20303;-69
2023/05/20 10:12:03;;;;;;;10.10;6.45;;;;;;;22.51;47.45;100639.13;5010879;28;20338;-70
2023/05/20 10:15:05;;;;;;;9.82;6.70;;;;;;;21.99;48.88;100630.78;5026209;28;20282;-67
2023/05/20 10:18:12;;;;;;;11.35;6.82;;;;;;;21.64;51.03;100626.44;4983979;28;20207;-71
2023/05/20 10:20:46;;;;;;;8.90;6.30;;;;;;;22.04;49.12;100632.47;5027879;28;20207;-69
2023/05/20 10:23:23;;;;;;;8.15;6.00;;;;;;;21.74;48.89;100634.22;5019191;28;20234;-69
2023/05/20 10:25:54;;;;;;;7.97;6.43;;;;;;;21.85;49.71;100633.91;5023900;28;20769;-69
2023/05/20 10:28:28;;;;;;;7.78;6.60;;;;;;;21.64;49.95;100640.81;5029601;28;20676;-69
2023/05/20 10:30:55;;;;;;;8.60;7.07;;;;;;;21.38;50.21;100637.94;5024604;28;20301;-71
2023/05/20 10:33:21;;;;;;;10.18;6.93;;;;;;;21.36;50.42;100632.59;5029093;28;20203;-70
2023/05/20 10:35:52;;;;;;;11.10;7.22;;;;;;;21.19;51.27;100632.97;5030391;28;20262;-70
2023/05/20 10:38:20;;;;;;;8.27;6.90;;;;;;;21.24;51.67;100632.91;5032981;28;20306;-69
2023/05/20 10:40:46;;;;;;;8.30;7.03;;;;;;;21.34;51.07;100631.75;5034965;28;20203;-70
2023/05/20 10:43:25;;;;;;;8.60;7.40;;;;;;;21.43;51.04;100634.19;5032419;28;20222;-70
2023/05/20 10:45:57;;;;;;;11.45;7.25;;;;;;;21.42;51.68;100629.72;5024139;28;20291;-70
2023/05/20 10:48:24;;;;;;;9.25;7.15;;;;;;;21.97;50.48;100635.34;5036248;28;20606;-70
2023/05/20 10:50:56;;;;;;;13.13;7.53;;;;;;;21.93;48.81;100637.25;5031643;28;20644;-69
2023/05/20 10:53:24;;;;;;;8.32;7.05;;;;;;;22.00;48.81;100624.47;5023287;28;20283;-70
2023/05/20 10:55:59;;;;;;;8.07;7.00;;;;;;;21.94;49.11;100624.66;5034994;28;20195;-69
2023/05/20 10:58:25;;;;;;;7.95;6.85;;;;;;;21.85;50.12;100628.50;5031382;28;20227;-69
2023/05/20 11:00:54;;;;;;;8.88;7.28;;;;;;;21.78;50.77;100610.75;5034849;28;20294;-69
2023/05/20 11:03:21;;;;;;;8.20;6.85;;;;;;;21.67;50.39;100608.38;5020259;28;20222;-69
2023/05/20 11:05:49;;;;;;;11.27;7.88;;;;;;;21.53;50.94;100600.66;5033827;28;20258;-70
2023/05/20 11:08:15;;;;;;;8.45;7.00;;;;;;;21.65;51.48;100603.94;5038184;28;20221;-70
2023/05/20 11:10:58;;;;;;;8.63;7.45;;;;;;;21.55;51.08;100593.41;5035164;28;20203;-70
2023/05/20 11:13:27;;;;;;;8.23;6.53;;;;;;;21.65;51.84;100583.25;5017794;28;20245;-69
2023/05/20 11:15:54;;;;;;;8.38;6.60;;;;;;;21.69;50.80;100587.63;5032942;28;20668;-72
2023/05/20 11:18:21;;;;;;;9.32;7.25;;;;;;;22.08;49.76;100573.94;5036747;28;20540;-70
2023/05/20 11:20:47;;;;;;;9.05;7.15;;;;;;;21.72;49.72;100579.47;5017659;28;20197;-70
2023/05/20 11:23:14;;;;;;;7.53;6.28;;;;;;;21.62;50.81;100566.28;5029848;28;20226;-70
2023/05/20 11:25:41;;;;;;;8.68;6.93;;;;;;;21.54;51.29;100569.19;5035300;28;20246;-70
2023/05/20 11:28:11;;;;;;;12.02;6.93;;;;;;;21.82;49.98;100570.16;5024203;28;20230;-72